SIN weather

Singapore Changi Airport
Singapore, South East, Singapore

Public forecast

Using degrees Celsius for public forecast. Weather courtesy of forecast.io.

METAR (pilot weather report)

Retrieved 2017/11/24 13:30 UTC (0 seconds ago):

WSSS 241330Z 33003KT 280V360 9999 -RA FEW020 BKN160 27/25 Q1010 NOSIG

TAF (pilot weather forecast)

Retrieved 2017/11/24 12:10 UTC (1 hour ago):

TAF WSSS 241100Z 2412/2518 35007KT 8000 FEW018CB SCT020 TEMPO 2506/2510 3000 TSRA FEW012CB BKN015